Calgary International Airport
CYYC : now visible

Airfield :











YOU CAN JOIN US ON...

 
LOGIN :

Register | Disclaimer

   EN    FR    IT 

 









Legend :    VFR   Marginal VFR   IFR   Intensive IFR   Very Intensive IFR
Visi :
Ceiling :
>= 8 km
>= 3000ft
5 to 8 km
1000 to 3000 ft
1500m to 5 km
500 to 1000 ft
800 to 1500m
200 to 500 ft
< 800m
< 200 ft
Symbols :   Thunderstorms  Fog  Heavy snow  Heavy precipitations  Wind > 20 kt






- Airport Elevation : 3557 ft
- IATA code : YYC


CYYC - Calgary International

CURRENT METAR :
  • 270800Z 01006KT 1 1/2SM -SN BKN008 OVC031 M02/M03 A3006 RMK SN5SC2SC1 SLP215

EXPIRED METARs :
  • 270728Z 01008KT 1 1/4SM -SN OVC006 M01/M02 A3005 RMK SN5SC3 SLP209
  • 270719Z 01010KT 4SM -SN OVC006 M02/M03 A3005 RMK SN3SC5 SLP210
  • 270700Z 35007KT 270V360 8SM OVC006 M02/M03 A3004 RMK SC8 BR SLP210
  • 270600Z 00000KT 12SM BKN007 M01/M03 A3001 RMK SF6 PRESRR SLP200
  • 270554Z 19004KT 12SM BKN007 M01/M02 A3001 RMK SF6 SLP197
  • 270532Z 20003KT 15SM SCT009 M01/M02 A3000 RMK SF3 SLP194

TAF AMD TAF CYYC
Valid from the 27 at 07:00 until the 28 at 06:00 UTC


270722Z 2707/2806 01008KT 2SM -SN BR OVC006
TEMPO 2707/2712 3/4SM BR VV002
FM271200 VRB03KT P6SM OVC008
TEMPO 2712/2716 1SM BR OVC004
BECMG 2713/2715 16006KT
FM271600 16006KT P6SM SCT008
TEMPO 2716/2718 5SM BR BKN008
FM271800 17008KT P6SM SCT012
FM272100 16006KT P6SM SKC
BECMG 2722/2724 VRB03KT
FM280400 28005KT P6SM SKC RMK NXT FCST BY 270900Z
CZEG FIR / North America



MET'MAP, your aeronautical weather chart ! - Copyright ORBIFLY December 2007 - Disclaimer

ORBIFLY MET'MAP TEAM :

Programming & Development : Alexandra Zaïnal
Concept & original design : Baudouin d'Aumeries
Assistance for programming : Marc-Olivier Méhu
Technical & hardware support : Manuel Goepfert

Contact : metmap@orbifly.com




SOURCES & CREDITS :

   NOAA       Earth
Advisory